Time;durP1;ratioP1;P1;durP2;ratioP2;P2;SDS_P1;SDS_P2;PMS_P1;PMS_P2;Temp;Humidity;BMP_temperature;BMP_pressure;BME280_temperature;BME280_humidity;BME280_pressure;Samples;Min_cycle;Max_cycle;Signal;HPM_P1;HPM_P2
2022/09/14 00:02:23;;;;;;;;;9.00;6.00;;;;;;;;5070314;28;45660;-66
2022/09/14 00:04:50;;;;;;;;;9.67;7.00;;;;;;;;5076063;28;45485;-66
2022/09/14 00:07:15;;;;;;;;;6.00;6.00;;;;;;;;5069261;28;45456;-67
2022/09/14 00:09:40;;;;;;;;;4.67;4.67;;;;;;;;5079246;28;45455;-67
2022/09/14 00:12:06;;;;;;;;;5.33;5.33;;;;;;;;5079793;28;45396;-67
2022/09/14 00:14:31;;;;;;;;;7.00;6.00;;;;;;;;5078021;28;45782;-68
2022/09/14 00:16:56;;;;;;;;;6.00;6.00;;;;;;;;5065277;28;45807;-67
2022/09/14 00:19:23;;;;;;;;;5.33;4.67;;;;;;;;5065284;28;46210;-68
2022/09/14 00:21:49;;;;;;;;;5.33;4.33;;;;;;;;5065878;28;45462;-68
2022/09/14 00:24:15;;;;;;;;;6.67;5.00;;;;;;;;5070238;28;45243;-68
2022/09/14 00:26:40;;;;;;;;;5.00;5.00;;;;;;;;5064977;28;45214;-69
2022/09/14 00:29:06;;;;;;;;;4.67;4.67;;;;;;;;5077276;28;46540;-68
2022/09/14 00:31:32;;;;;;;;;6.00;6.00;;;;;;;;5066118;28;45392;-68
2022/09/14 00:33:57;;;;;;;;;6.00;6.00;;;;;;;;5072408;28;45289;-67
2022/09/14 00:36:24;;;;;;;;;7.00;5.33;;;;;;;;5070115;28;45580;-67
2022/09/14 00:38:50;;;;;;;;;6.33;6.33;;;;;;;;5073844;28;45312;-67
2022/09/14 00:41:17;;;;;;;;;3.00;2.00;;;;;;;;5073060;28;45481;-66
2022/09/14 00:43:51;;;;;;;;;2.33;2.33;;;;;;;;5079945;28;45331;-67
2022/09/14 00:46:16;;;;;;;;;4.67;4.67;;;;;;;;5075869;28;45581;-67
2022/09/14 00:48:41;;;;;;;;;6.67;6.33;;;;;;;;5070774;28;46538;-66
2022/09/14 00:51:07;;;;;;;;;7.00;6.00;;;;;;;;5065448;28;45424;-68
2022/09/14 00:53:32;;;;;;;;;8.33;6.67;;;;;;;;5067622;28;45818;-67
2022/09/14 00:55:57;;;;;;;;;7.00;6.00;;;;;;;;5071862;28;45963;-67
2022/09/14 00:58:22;;;;;;;;;7.00;5.33;;;;;;;;5071811;28;45378;-66
2022/09/14 01:00:48;;;;;;;;;6.33;5.00;;;;;;;;5073292;28;45377;-67
2022/09/14 01:03:13;;;;;;;;;6.00;6.00;;;;;;;;5076537;28;45691;-67
2022/09/14 01:05:51;;;;;;;;;8.00;6.33;;;;;;;;5080735;28;45310;-65
2022/09/14 01:08:33;;;;;;;;;9.00;7.00;;;;;;;;5081346;28;46446;-65
2022/09/14 01:11:04;;;;;;;;;6.67;6.67;;;;;;;;5079807;28;45334;-68
2022/09/14 01:13:38;;;;;;;;;7.00;6.00;;;;;;;;5065655;28;45916;-67
2022/09/14 01:16:11;;;;;;;;;9.33;8.67;;;;;;;;5068394;28;45558;-66
2022/09/14 01:18:39;;;;;;;;;8.33;7.00;;;;;;;;5067120;28;46060;-66
2022/09/14 01:21:09;;;;;;;;;7.33;7.33;;;;;;;;5068844;28;45547;-66
2022/09/14 01:23:35;;;;;;;;;8.33;7.67;;;;;;;;5073099;28;45504;-66
2022/09/14 01:26:06;;;;;;;;;5.67;5.67;;;;;;;;5071901;28;45365;-66
2022/09/14 01:28:39;;;;;;;;;4.00;4.00;;;;;;;;5081613;28;46765;-66
2022/09/14 01:31:08;;;;;;;;;4.00;4.00;;;;;;;;5072870;27;45397;-66
2022/09/14 01:33:41;;;;;;;;;5.00;5.00;;;;;;;;5071985;28;45338;-66
2022/09/14 01:36:08;;;;;;;;;5.33;5.33;;;;;;;;5075564;28;45459;-66
2022/09/14 01:38:38;;;;;;;;;7.00;4.33;;;;;;;;5074256;28;46483;-67
2022/09/14 01:41:06;;;;;;;;;5.33;4.67;;;;;;;;5079064;28;45797;-68
2022/09/14 01:43:33;;;;;;;;;6.67;5.00;;;;;;;;5080131;28;45463;-66
2022/09/14 01:46:02;;;;;;;;;6.33;5.00;;;;;;;;5080654;27;45278;-66
2022/09/14 01:48:31;;;;;;;;;3.67;3.00;;;;;;;;5074124;28;45347;-66
2022/09/14 01:50:58;;;;;;;;;5.67;4.00;;;;;;;;5068301;28;45424;-66
2022/09/14 01:53:33;;;;;;;;;4.00;4.00;;;;;;;;5068000;28;46333;-66
2022/09/14 01:56:09;;;;;;;;;6.00;4.67;;;;;;;;5070755;28;45200;-67
2022/09/14 01:58:38;;;;;;;;;6.00;4.33;;;;;;;;5068871;28;45758;-67
2022/09/14 02:01:06;;;;;;;;;6.00;5.33;;;;;;;;5073329;28;45428;-66
2022/09/14 02:03:36;;;;;;;;;5.00;5.00;;;;;;;;5075790;28;45451;-66
2022/09/14 02:06:13;;;;;;;;;4.00;4.00;;;;;;;;5077272;28;45702;-66
2022/09/14 02:08:39;;;;;;;;;7.00;4.67;;;;;;;;5074830;28;46326;-66
2022/09/14 02:11:04;;;;;;;;;6.00;4.67;;;;;;;;5077663;28;45375;-66
2022/09/14 02:13:29;;;;;;;;;4.00;3.67;;;;;;;;5064904;28;46107;-66
2022/09/14 02:15:55;;;;;;;;;5.33;4.00;;;;;;;;5067809;28;45321;-66
2022/09/14 02:18:20;;;;;;;;;6.33;4.33;;;;;;;;5065861;28;45439;-66
2022/09/14 02:20:45;;;;;;;;;6.33;5.33;;;;;;;;5067405;28;45330;-66
2022/09/14 02:23:11;;;;;;;;;6.33;4.00;;;;;;;;5073552;28;45364;-67
2022/09/14 02:25:36;;;;;;;;;6.67;5.33;;;;;;;;5069113;28;45444;-66
2022/09/14 02:28:03;;;;;;;;;5.00;5.00;;;;;;;;5071279;28;46461;-66
2022/09/14 02:30:32;;;;;;;;;4.33;4.00;;;;;;;;5074868;27;45429;-66
2022/09/14 02:33:11;;;;;;;;;5.00;4.00;;;;;;;;5070309;27;45395;-66
2022/09/14 02:35:39;;;;;;;;;4.00;4.00;;;;;;;;5075787;28;45649;-66
2022/09/14 02:38:20;;;;;;;;;4.33;4.33;;;;;;;;5070081;28;45425;-66
2022/09/14 02:40:45;;;;;;;;;3.00;3.00;;;;;;;;5069207;28;45491;-66
2022/09/14 02:43:16;;;;;;;;;5.00;4.75;;;;;;;;5076185;28;45630;-66
2022/09/14 02:45:55;;;;;;;;;5.00;3.00;;;;;;;;5081879;28;45388;-66
2022/09/14 02:48:29;;;;;;;;;3.67;3.67;;;;;;;;5072661;28;45371;-67
2022/09/14 02:51:14;;;;;;;;;5.00;4.00;;;;;;;;5066784;28;45397;-66
2022/09/14 02:53:47;;;;;;;;;4.00;4.00;;;;;;;;5068560;28;45341;-66
2022/09/14 02:56:12;;;;;;;;;5.33;5.00;;;;;;;;5070914;28;45244;-66
2022/09/14 02:58:39;;;;;;;;;4.67;4.67;;;;;;;;5071529;28;48258;-66
2022/09/14 03:01:05;;;;;;;;;7.33;5.00;;;;;;;;5071750;28;45457;-66
2022/09/14 03:03:31;;;;;;;;;6.00;5.00;;;;;;;;5074944;28;45463;-66
2022/09/14 03:05:56;;;;;;;;;4.33;4.00;;;;;;;;5075478;27;45335;-66
2022/09/14 03:08:22;;;;;;;;;5.00;5.00;;;;;;;;5073644;28;45496;-66
2022/09/14 03:10:47;;;;;;;;;3.00;3.00;;;;;;;;5077807;28;46323;-66
2022/09/14 03:13:13;;;;;;;;;5.67;4.00;;;;;;;;5062706;28;45414;-66
2022/09/14 03:15:38;;;;;;;;;4.00;4.00;;;;;;;;5063882;28;45393;-66
2022/09/14 03:18:04;;;;;;;;;7.00;5.00;;;;;;;;5067100;28;46686;-68
2022/09/14 03:20:30;;;;;;;;;5.00;4.00;;;;;;;;5065124;28;45419;-66
2022/09/14 03:22:57;;;;;;;;;3.33;3.33;;;;;;;;5064421;28;45488;-67
2022/09/14 03:25:22;;;;;;;;;5.33;4.33;;;;;;;;5068592;28;45267;-67
2022/09/14 03:27:53;;;;;;;;;5.33;5.33;;;;;;;;5068275;28;45317;-67
2022/09/14 03:30:18;;;;;;;;;5.67;4.00;;;;;;;;5075171;28;45550;-67
2022/09/14 03:32:44;;;;;;;;;7.33;4.33;;;;;;;;5070341;28;45407;-67
2022/09/14 03:35:09;;;;;;;;;3.67;3.67;;;;;;;;5073931;28;45241;-67
2022/09/14 03:37:38;;;;;;;;;5.00;5.00;;;;;;;;5071038;28;45387;-67
2022/09/14 03:40:04;;;;;;;;;4.00;4.00;;;;;;;;5082078;28;45576;-67
2022/09/14 03:42:29;;;;;;;;;5.00;3.00;;;;;;;;5074147;28;45598;-67
2022/09/14 03:44:55;;;;;;;;;2.33;2.33;;;;;;;;5072079;28;45213;-67
2022/09/14 03:47:20;;;;;;;;;5.00;4.67;;;;;;;;5076631;28;45530;-67
2022/09/14 03:49:45;;;;;;;;;3.00;3.00;;;;;;;;5073248;28;45339;-67
2022/09/14 03:52:11;;;;;;;;;8.00;6.67;;;;;;;;5076299;28;45263;-67
2022/09/14 03:54:36;;;;;;;;;7.00;5.00;;;;;;;;5078526;28;46297;-67
2022/09/14 03:57:01;;;;;;;;;6.00;6.00;;;;;;;;5070808;28;46757;-67
2022/09/14 03:59:26;;;;;;;;;6.00;5.00;;;;;;;;5063496;28;45393;-67
2022/09/14 04:01:52;;;;;;;;;4.67;4.33;;;;;;;;5066323;28;45285;-67
2022/09/14 04:04:17;;;;;;;;;5.00;5.00;;;;;;;;5067396;28;45581;-67
2022/09/14 04:06:42;;;;;;;;;3.33;3.33;;;;;;;;5071187;28;46350;-67
2022/09/14 04:09:07;;;;;;;;;5.00;5.00;;;;;;;;5067831;28;45281;-67
2022/09/14 04:11:33;;;;;;;;;6.00;6.00;;;;;;;;5074321;28;45445;-67
2022/09/14 04:14:02;;;;;;;;;8.00;7.00;;;;;;;;5070632;28;45315;-67
2022/09/14 04:16:28;;;;;;;;;5.67;5.67;;;;;;;;5064264;28;46754;-67
2022/09/14 04:18:53;;;;;;;;;19.67;13.33;;;;;;;;5063271;28;45195;-67
2022/09/14 04:21:20;;;;;;;;;10.33;10.33;;;;;;;;5073990;28;45672;-67
2022/09/14 04:23:45;;;;;;;;;11.00;9.33;;;;;;;;5071312;28;45503;-67
2022/09/14 04:26:11;;;;;;;;;13.00;11.00;;;;;;;;5075836;28;45412;-66
2022/09/14 04:28:37;;;;;;;;;11.00;10.00;;;;;;;;5077700;28;45334;-67
2022/09/14 04:31:02;;;;;;;;;13.67;11.67;;;;;;;;5064802;28;45455;-66
2022/09/14 04:33:29;;;;;;;;;10.00;10.00;;;;;;;;5067110;28;45418;-67
2022/09/14 04:35:57;;;;;;;;;9.00;9.00;;;;;;;;5066544;27;45476;-67
2022/09/14 04:38:23;;;;;;;;;10.00;10.00;;;;;;;;5069504;28;45352;-67
2022/09/14 04:40:48;;;;;;;;;9.67;8.00;;;;;;;;5068329;28;45537;-68
2022/09/14 04:43:13;;;;;;;;;8.00;5.67;;;;;;;;5070278;28;45397;-67
2022/09/14 04:45:39;;;;;;;;;6.00;5.67;;;;;;;;5070524;28;48102;-69
2022/09/14 04:48:04;;;;;;;;;8.33;6.00;;;;;;;;5073807;28;45352;-67
2022/09/14 04:50:30;;;;;;;;;5.00;5.00;;;;;;;;5075213;28;45706;-67
2022/09/14 04:52:56;;;;;;;;;7.33;6.33;;;;;;;;5071279;28;45727;-67
2022/09/14 04:55:22;;;;;;;;;5.67;5.67;;;;;;;;5080601;28;45726;-67
2022/09/14 04:57:48;;;;;;;;;5.00;5.00;;;;;;;;5064682;28;46209;-67
2022/09/14 05:00:13;;;;;;;;;5.00;3.67;;;;;;;;5080393;28;45321;-68
2022/09/14 05:02:39;;;;;;;;;5.33;4.33;;;;;;;;5065786;28;45709;-67
2022/09/14 05:05:05;;;;;;;;;5.67;5.67;;;;;;;;5074952;27;46708;-67
2022/09/14 05:07:30;;;;;;;;;8.00;5.67;;;;;;;;5066990;28;45328;-67
2022/09/14 05:09:55;;;;;;;;;8.33;6.00;;;;;;;;5080085;28;45395;-67
2022/09/14 05:12:20;;;;;;;;;4.67;4.67;;;;;;;;5062853;28;45469;-66
2022/09/14 05:14:45;;;;;;;;;7.67;5.00;;;;;;;;5077626;28;45551;-67
2022/09/14 05:17:10;;;;;;;;;4.67;4.67;;;;;;;;5065767;28;45446;-66
2022/09/14 05:19:36;;;;;;;;;5.67;5.33;;;;;;;;5078478;28;45340;-66
2022/09/14 05:22:01;;;;;;;;;8.67;4.67;;;;;;;;5070559;28;45291;-67
2022/09/14 05:24:26;;;;;;;;;5.00;5.00;;;;;;;;5064004;28;45231;-67
2022/09/14 05:26:52;;;;;;;;;5.00;5.00;;;;;;;;5065167;28;45721;-66
2022/09/14 05:29:17;;;;;;;;;4.00;4.00;;;;;;;;5075358;28;45323;-68
2022/09/14 05:31:43;;;;;;;;;5.67;4.00;;;;;;;;5062715;28;45334;-66
2022/09/14 05:34:09;;;;;;;;;9.00;6.00;;;;;;;;5071220;28;46125;-67
2022/09/14 05:36:35;;;;;;;;;10.00;10.00;;;;;;;;5064738;28;45516;-68
2022/09/14 05:39:00;;;;;;;;;9.33;8.33;;;;;;;;5075028;28;45381;-68
2022/09/14 05:41:25;;;;;;;;;7.00;7.00;;;;;;;;5071541;28;45251;-68
2022/09/14 05:43:50;;;;;;;;;7.00;6.00;;;;;;;;5079373;28;45517;-67
2022/09/14 05:46:18;;;;;;;;;9.00;7.67;;;;;;;;5074406;28;45487;-68
2022/09/14 05:48:44;;;;;;;;;7.00;7.00;;;;;;;;5078827;28;45474;-68
2022/09/14 05:51:14;;;;;;;;;8.33;6.00;;;;;;;;5077126;28;45507;-66
2022/09/14 05:53:40;;;;;;;;;6.00;6.00;;;;;;;;5068205;28;45413;-67
2022/09/14 05:56:07;;;;;;;;;11.67;8.33;;;;;;;;5067381;28;48238;-67
2022/09/14 05:58:33;;;;;;;;;8.00;6.00;;;;;;;;5067030;28;45379;-67
2022/09/14 06:01:04;;;;;;;;;6.00;6.00;;;;;;;;5072734;28;45537;-67
2022/09/14 06:03:30;;;;;;;;;8.00;6.33;;;;;;;;5070437;28;45369;-66
2022/09/14 06:05:56;;;;;;;;;6.00;6.00;;;;;;;;5071468;28;45371;-67
2022/09/14 06:08:22;;;;;;;;;6.67;6.67;;;;;;;;5072138;28;45432;-66
2022/09/14 06:10:47;;;;;;;;;9.67;8.00;;;;;;;;5073356;28;45516;-68
2022/09/14 06:13:12;;;;;;;;;9.33;7.67;;;;;;;;5062420;28;45539;-66
2022/09/14 06:15:37;;;;;;;;;7.00;6.67;;;;;;;;5073308;28;45465;-66
2022/09/14 06:18:03;;;;;;;;;8.33;6.67;;;;;;;;5068221;28;45373;-67
2022/09/14 06:20:28;;;;;;;;;7.00;5.67;;;;;;;;5074702;28;45425;-69
2022/09/14 06:22:54;;;;;;;;;8.00;6.67;;;;;;;;5075043;28;45730;-68
2022/09/14 06:25:19;;;;;;;;;7.00;7.00;;;;;;;;5081945;28;45247;-67
2022/09/14 06:27:44;;;;;;;;;7.00;7.00;;;;;;;;5067588;28;45274;-67
2022/09/14 06:30:10;;;;;;;;;7.00;7.00;;;;;;;;5071564;27;45706;-69
2022/09/14 06:32:35;;;;;;;;;12.33;8.67;;;;;;;;5070365;28;46907;-68
2022/09/14 06:35:02;;;;;;;;;5.00;5.00;;;;;;;;5065120;28;45407;-68
2022/09/14 06:37:27;;;;;;;;;4.67;4.33;;;;;;;;5069633;28;45239;-68
2022/09/14 06:39:52;;;;;;;;;6.00;6.00;;;;;;;;5069252;28;45478;-67
2022/09/14 06:42:18;;;;;;;;;8.33;8.00;;;;;;;;5076698;28;45544;-67
2022/09/14 06:44:43;;;;;;;;;6.00;6.00;;;;;;;;5073478;28;45236;-68
2022/09/14 06:47:08;;;;;;;;;10.00;6.33;;;;;;;;5076856;28;45337;-67
2022/09/14 06:49:33;;;;;;;;;7.00;6.00;;;;;;;;5073554;28;45199;-67
2022/09/14 06:51:59;;;;;;;;;5.67;5.67;;;;;;;;5068981;28;45222;-67
2022/09/14 06:54:25;;;;;;;;;6.67;6.00;;;;;;;;5073395;28;45530;-67
2022/09/14 06:56:50;;;;;;;;;7.00;6.00;;;;;;;;5072862;28;45289;-69
2022/09/14 06:59:16;;;;;;;;;8.00;6.00;;;;;;;;5075428;28;45509;-68
2022/09/14 07:01:43;;;;;;;;;5.33;5.33;;;;;;;;5071326;28;45713;-67
2022/09/14 07:04:08;;;;;;;;;6.67;6.00;;;;;;;;5067342;28;45407;-68
2022/09/14 07:06:38;;;;;;;;;7.00;6.00;;;;;;;;5067909;28;45424;-68
2022/09/14 07:09:04;;;;;;;;;10.33;8.33;;;;;;;;5070070;28;45562;-68
2022/09/14 07:11:29;;;;;;;;;5.00;5.00;;;;;;;;5072316;27;45463;-68
2022/09/14 07:13:57;;;;;;;;;7.00;4.67;;;;;;;;5062614;28;45386;-67
2022/09/14 07:16:23;;;;;;;;;11.00;8.00;;;;;;;;5072275;28;45257;-67
2022/09/14 07:18:51;;;;;;;;;7.00;5.33;;;;;;;;5068634;28;45455;-67
2022/09/14 07:21:17;;;;;;;;;7.00;7.00;;;;;;;;5075493;28;47011;-67
2022/09/14 07:23:44;;;;;;;;;10.67;9.00;;;;;;;;5076356;28;45315;-67
2022/09/14 07:26:11;;;;;;;;;9.67;8.00;;;;;;;;5076898;27;45425;-67
2022/09/14 07:28:37;;;;;;;;;8.67;8.67;;;;;;;;5074149;28;45495;-67
2022/09/14 07:31:02;;;;;;;;;11.67;8.00;;;;;;;;5062843;28;46626;-67
2022/09/14 07:33:28;;;;;;;;;8.33;8.33;;;;;;;;5068493;28;45266;-68
2022/09/14 07:35:53;;;;;;;;;8.00;7.00;;;;;;;;5066252;28;45447;-67
2022/09/14 07:38:19;;;;;;;;;6.33;5.00;;;;;;;;5070991;28;45397;-67
2022/09/14 07:40:44;;;;;;;;;7.00;7.00;;;;;;;;5071337;28;45810;-67
2022/09/14 07:43:10;;;;;;;;;9.00;6.33;;;;;;;;5069323;28;45667;-68
2022/09/14 07:45:35;;;;;;;;;10.00;8.33;;;;;;;;5074799;28;45360;-67
2022/09/14 07:48:01;;;;;;;;;10.67;8.00;;;;;;;;5068567;27;45900;-67
2022/09/14 07:50:26;;;;;;;;;8.00;6.67;;;;;;;;5077348;28;46530;-68
2022/09/14 07:52:51;;;;;;;;;6.00;6.00;;;;;;;;5066309;28;45369;-68
2022/09/14 07:55:17;;;;;;;;;8.67;7.00;;;;;;;;5081049;28;45364;-68
2022/09/14 07:57:42;;;;;;;;;8.33;7.67;;;;;;;;5066848;28;45516;-67
2022/09/14 08:00:09;;;;;;;;;7.33;6.33;;;;;;;;5065259;28;45430;-67
2022/09/14 08:02:34;;;;;;;;;5.67;5.67;;;;;;;;5069824;28;45502;-67
2022/09/14 08:04:59;;;;;;;;;8.00;6.67;;;;;;;;5074542;28;45435;-67
2022/09/14 08:07:24;;;;;;;;;7.67;5.00;;;;;;;;5064228;28;45392;-67
2022/09/14 08:09:49;;;;;;;;;9.67;8.00;;;;;;;;5068737;28;46363;-67
2022/09/14 08:12:15;;;;;;;;;9.00;9.00;;;;;;;;5068017;28;45470;-67
2022/09/14 08:14:40;;;;;;;;;7.00;6.00;;;;;;;;5070019;28;45282;-67
2022/09/14 08:17:05;;;;;;;;;6.00;5.67;;;;;;;;5070279;27;45563;-67
2022/09/14 08:19:31;;;;;;;;;6.00;2.67;;;;;;;;5078575;28;45781;-67
2022/09/14 08:21:56;;;;;;;;;8.00;6.33;;;;;;;;5071800;28;45382;-67
2022/09/14 08:24:21;;;;;;;;;8.00;7.67;;;;;;;;5070707;28;45521;-66
2022/09/14 08:26:47;;;;;;;;;18.33;18.33;;;;;;;;5074738;28;45446;-67
2022/09/14 08:29:13;;;;;;;;;9.00;6.00;;;;;;;;5069998;28;45440;-67
2022/09/14 08:31:38;;;;;;;;;8.00;6.67;;;;;;;;5066908;28;45326;-66
2022/09/14 08:34:05;;;;;;;;;8.67;7.33;;;;;;;;5068789;28;45434;-67
2022/09/14 08:36:31;;;;;;;;;6.00;6.00;;;;;;;;5064990;28;45199;-67
2022/09/14 08:38:57;;;;;;;;;5.67;5.00;;;;;;;;5070437;28;47667;-67
2022/09/14 08:41:22;;;;;;;;;8.33;7.33;;;;;;;;5064196;28;45243;-67
2022/09/14 08:43:48;;;;;;;;;6.00;5.67;;;;;;;;5072404;28;45620;-67
2022/09/14 08:46:24;;;;;;;;;8.00;5.00;;;;;;;;5069154;28;45144;-67
2022/09/14 08:48:49;;;;;;;;;6.00;4.67;;;;;;;;5068567;28;45432;-67
2022/09/14 08:51:15;;;;;;;;;5.00;5.00;;;;;;;;5071497;28;45466;-67
2022/09/14 08:53:41;;;;;;;;;6.33;6.33;;;;;;;;5068868;28;45469;-67
2022/09/14 08:56:11;;;;;;;;;6.33;5.33;;;;;;;;5074817;28;45382;-67
2022/09/14 08:58:42;;;;;;;;;7.67;6.67;;;;;;;;5074348;28;47793;-68
2022/09/14 09:01:16;;;;;;;;;5.00;5.00;;;;;;;;5076036;28;45345;-68
2022/09/14 09:03:52;;;;;;;;;7.33;6.00;;;;;;;;5066468;27;45480;-67
2022/09/14 09:06:26;;;;;;;;;7.67;6.00;;;;;;;;5072530;28;45611;-68
2022/09/14 09:09:02;;;;;;;;;4.33;4.33;;;;;;;;5067627;28;46299;-68
2022/09/14 09:11:34;;;;;;;;;7.67;7.67;;;;;;;;5070956;28;45294;-68
2022/09/14 09:14:02;;;;;;;;;7.67;7.67;;;;;;;;5064341;28;45560;-67
2022/09/14 09:16:27;;;;;;;;;6.67;6.67;;;;;;;;5067559;28;45492;-66
2022/09/14 09:18:59;;;;;;;;;9.00;9.00;;;;;;;;5076426;28;46471;-66
2022/09/14 09:21:27;;;;;;;;;10.67;9.00;;;;;;;;5079052;28;45688;-69
2022/09/14 09:24:22;;;;;;;;;8.67;6.33;;;;;;;;5070051;28;45260;-68
2022/09/14 09:26:47;;;;;;;;;10.00;5.67;;;;;;;;5073846;28;45357;-69
2022/09/14 09:29:13;;;;;;;;;8.00;8.00;;;;;;;;5074594;28;46210;-67
2022/09/14 09:31:42;;;;;;;;;9.33;8.00;;;;;;;;5071430;28;45831;-66
2022/09/14 09:34:09;;;;;;;;;8.00;7.33;;;;;;;;5071471;28;45237;-67
2022/09/14 09:36:35;;;;;;;;;5.00;5.00;;;;;;;;5068976;28;45541;-66
2022/09/14 09:39:01;;;;;;;;;5.33;5.33;;;;;;;;5075291;27;45396;-67
2022/09/14 09:41:28;;;;;;;;;4.00;4.00;;;;;;;;5068793;28;45427;-66
2022/09/14 09:43:56;;;;;;;;;4.00;4.00;;;;;;;;5075283;28;45382;-67
2022/09/14 09:46:22;;;;;;;;;4.00;4.00;;;;;;;;5071763;28;45297;-67
2022/09/14 09:48:47;;;;;;;;;5.67;5.67;;;;;;;;5083010;28;47337;-67
2022/09/14 09:51:14;;;;;;;;;5.00;3.00;;;;;;;;5075390;28;45459;-67
2022/09/14 09:53:47;;;;;;;;;6.67;5.00;;;;;;;;5071798;28;45340;-67
2022/09/14 09:56:16;;;;;;;;;4.33;4.33;;;;;;;;5077173;28;45447;-66
2022/09/14 09:58:42;;;;;;;;;4.00;4.00;;;;;;;;5072783;28;45481;-66
2022/09/14 10:01:18;;;;;;;;;7.00;7.00;;;;;;;;5081015;28;45268;-67
2022/09/14 10:03:58;;;;;;;;;4.67;4.67;;;;;;;;5070509;27;45386;-66
2022/09/14 10:06:23;;;;;;;;;6.00;4.00;;;;;;;;5072492;28;45294;-67
2022/09/14 10:08:48;;;;;;;;;4.00;4.00;;;;;;;;5071219;28;46113;-67
2022/09/14 10:11:28;;;;;;;;;4.00;3.67;;;;;;;;5073714;28;45409;-67
2022/09/14 10:13:53;;;;;;;;;7.00;6.33;;;;;;;;5065187;28;45377;-67
2022/09/14 10:16:19;;;;;;;;;6.00;6.00;;;;;;;;5076799;28;45538;-67
2022/09/14 10:18:48;;;;;;;;;6.00;6.00;;;;;;;;5066630;28;46359;-66
2022/09/14 10:21:15;;;;;;;;;4.00;4.00;;;;;;;;5079258;28;45282;-66
2022/09/14 10:23:40;;;;;;;;;3.00;3.00;;;;;;;;5068686;28;45485;-67
2022/09/14 10:26:12;;;;;;;;;4.00;4.00;;;;;;;;5066339;28;45254;-67
2022/09/14 10:28:38;;;;;;;;;4.00;4.00;;;;;;;;5073659;28;46624;-67
2022/09/14 10:31:18;;;;;;;;;9.33;8.00;;;;;;;;5066739;28;45276;-68
2022/09/14 10:33:52;;;;;;;;;4.67;4.33;;;;;;;;5071381;28;45429;-67
2022/09/14 10:36:43;;;;;;;;;3.67;3.67;;;;;;;;5066463;28;45254;-67
2022/09/14 10:39:27;;;;;;;;;5.33;4.67;;;;;;;;5068997;28;45696;-67
2022/09/14 10:42:01;;;;;;;;;4.33;4.33;;;;;;;;5070007;28;45253;-67
2022/09/14 10:44:42;;;;;;;;;0.33;0.33;;;;;;;;5073835;27;45444;-66
2022/09/14 10:47:14;;;;;;;;;2.00;2.00;;;;;;;;5075507;28;45442;-67
2022/09/14 10:49:39;;;;;;;;;4.00;3.00;;;;;;;;5073995;28;45341;-68
2022/09/14 10:52:11;;;;;;;;;3.67;3.67;;;;;;;;5070682;28;45457;-67
2022/09/14 10:54:39;;;;;;;;;5.33;5.00;;;;;;;;5073501;28;45452;-66
2022/09/14 10:57:23;;;;;;;;;3.00;3.00;;;;;;;;5075449;28;45619;-67
2022/09/14 10:59:52;;;;;;;;;3.33;3.00;;;;;;;;5077892;28;47042;-67
2022/09/14 11:02:29;;;;;;;;;1.67;1.67;;;;;;;;5068639;28;45432;-68
2022/09/14 11:05:00;;;;;;;;;2.67;2.67;;;;;;;;5073514;28;45420;-66
2022/09/14 11:07:31;;;;;;;;;3.00;3.00;;;;;;;;5069596;28;45534;-68
2022/09/14 11:10:12;;;;;;;;;4.00;4.00;;;;;;;;5070249;28;45481;-68
2022/09/14 11:13:01;;;;;;;;;3.00;3.00;;;;;;;;5066790;28;45420;-68
2022/09/14 11:15:29;;;;;;;;;3.00;3.00;;;;;;;;5057901;28;45398;-67
2022/09/14 11:18:09;;;;;;;;;3.67;3.67;;;;;;;;5073155;28;45465;-67
2022/09/14 11:20:34;;;;;;;;;3.33;3.33;;;;;;;;5094367;27;46622;-67
2022/09/14 11:23:16;;;;;;;;;3.00;3.00;;;;;;;;5073068;28;45372;-68
2022/09/14 11:25:46;;;;;;;;;3.67;3.00;;;;;;;;5075985;28;45354;-67
2022/09/14 11:28:17;;;;;;;;;3.00;3.00;;;;;;;;5075484;28;45386;-67
2022/09/14 11:30:51;;;;;;;;;3.67;3.00;;;;;;;;5067322;27;46811;-67
2022/09/14 11:33:36;;;;;;;;;4.67;4.00;;;;;;;;5070944;28;45401;-67
2022/09/14 11:36:08;;;;;;;;;3.33;3.33;;;;;;;;5065597;28;45334;-67
2022/09/14 11:38:42;;;;;;;;;6.67;4.00;;;;;;;;5073134;28;45623;-67
2022/09/14 11:41:29;;;;;;;;;7.00;6.67;;;;;;;;5067549;28;47247;-68
2022/09/14 11:44:04;;;;;;;;;17.33;8.00;;;;;;;;5072794;28;45444;-65
2022/09/14 11:46:29;;;;;;;;;9.00;5.00;;;;;;;;5069214;28;45500;-66
2022/09/14 11:48:55;;;;;;;;;6.67;6.33;;;;;;;;5071546;28;45249;-66
2022/09/14 11:51:22;;;;;;;;;16.00;10.67;;;;;;;;5072750;28;46191;-66
2022/09/14 11:53:49;;;;;;;;;6.00;5.00;;;;;;;;5071285;28;45344;-66
2022/09/14 11:56:17;;;;;;;;;4.00;4.00;;;;;;;;5075794;28;45618;-67
2022/09/14 11:58:45;;;;;;;;;6.00;4.33;;;;;;;;5080299;28;45264;-66
2022/09/14 12:01:36;;;;;;;;;7.00;5.00;;;;;;;;5079503;28;45460;-68
2022/09/14 12:04:04;;;;;;;;;4.33;4.33;;;;;;;;5067862;28;45282;-67
2022/09/14 12:06:29;;;;;;;;;4.00;3.00;;;;;;;;5070128;28;45464;-67
2022/09/14 12:09:15;;;;;;;;;3.00;3.00;;;;;;;;5068366;28;45589;-68
2022/09/14 12:11:41;;;;;;;;;4.67;4.67;;;;;;;;5064769;28;46404;-66
2022/09/14 12:14:13;;;;;;;;;6.00;3.33;;;;;;;;5095992;27;45324;-67
2022/09/14 12:16:57;;;;;;;;;2.67;2.67;;;;;;;;5076450;28;45404;-67
2022/09/14 12:19:25;;;;;;;;;4.00;4.00;;;;;;;;5069616;28;45176;-67
2022/09/14 12:21:50;;;;;;;;;5.00;3.00;;;;;;;;5074563;28;45526;-67
2022/09/14 12:24:20;;;;;;;;;2.00;2.00;;;;;;;;5072173;28;45324;-68
2022/09/14 12:26:46;;;;;;;;;3.00;3.00;;;;;;;;5076149;28;45418;-67
2022/09/14 12:29:32;;;;;;;;;2.00;2.00;;;;;;;;5071797;28;45603;-67
2022/09/14 12:32:02;;;;;;;;;3.33;3.33;;;;;;;;5069969;28;46313;-68
2022/09/14 12:34:32;;;;;;;;;3.00;3.00;;;;;;;;5066976;27;45275;-67
2022/09/14 12:37:02;;;;;;;;;2.67;2.67;;;;;;;;5069758;28;45364;-67
2022/09/14 12:39:31;;;;;;;;;2.33;2.33;;;;;;;;5070345;28;45585;-67
2022/09/14 12:42:02;;;;;;;;;3.67;2.00;;;;;;;;5070651;28;45489;-67
2022/09/14 12:44:37;;;;;;;;;2.00;2.00;;;;;;;;5072676;27;45388;-68
2022/09/14 12:47:21;;;;;;;;;2.00;2.00;;;;;;;;5070823;28;45741;-68
2022/09/14 12:49:47;;;;;;;;;3.67;2.00;;;;;;;;5101086;27;45567;-68
2022/09/14 12:52:19;;;;;;;;;4.00;4.00;;;;;;;;5078878;28;47827;-69
2022/09/14 12:54:54;;;;;;;;;2.00;2.00;;;;;;;;5080322;28;45458;-68
2022/09/14 12:57:25;;;;;;;;;4.33;2.00;;;;;;;;5075387;27;45354;-66
2022/09/14 12:59:53;;;;;;;;;3.00;3.00;;;;;;;;5084038;28;45283;-66
2022/09/14 13:02:37;;;;;;;;;3.00;2.00;;;;;;;;5076299;28;45432;-66
2022/09/14 13:05:06;;;;;;;;;3.33;3.00;;;;;;;;5078351;28;45368;-66
2022/09/14 13:07:32;;;;;;;;;4.00;2.00;;;;;;;;5070410;28;45412;-66
2022/09/14 13:09:59;;;;;;;;;2.00;2.00;;;;;;;;5073934;28;45247;-68
2022/09/14 13:12:40;;;;;;;;;1.00;1.00;;;;;;;;5068011;28;45416;-67
2022/09/14 13:15:14;;;;;;;;;3.00;2.00;;;;;;;;5074828;28;45353;-67
2022/09/14 13:17:53;;;;;;;;;2.00;2.00;;;;;;;;5071967;28;46155;-66
2022/09/14 13:20:19;;;;;;;;;4.00;2.67;;;;;;;;5077964;28;45365;-66
2022/09/14 13:22:45;;;;;;;;;4.67;4.33;;;;;;;;5074160;28;45373;-66
2022/09/14 13:25:27;;;;;;;;;3.33;3.33;;;;;;;;5078123;28;45194;-68
2022/09/14 13:27:53;;;;;;;;;3.00;2.00;;;;;;;;5072537;28;45510;-67
2022/09/14 13:30:20;;;;;;;;;1.00;1.00;;;;;;;;5073882;27;45467;-67
2022/09/14 13:32:48;;;;;;;;;6.00;3.00;;;;;;;;5072750;27;45733;-67
2022/09/14 13:35:34;;;;;;;;;2.00;1.00;;;;;;;;5069869;28;45472;-66
2022/09/14 13:38:04;;;;;;;;;2.00;1.00;;;;;;;;5074997;28;45385;-66
2022/09/14 13:40:30;;;;;;;;;3.00;3.00;;;;;;;;5076344;28;45242;-67
2022/09/14 13:42:56;;;;;;;;;1.00;1.00;;;;;;;;5071903;28;45365;-67
2022/09/14 13:45:22;;;;;;;;;3.33;2.67;;;;;;;;5078714;28;45292;-67
2022/09/14 13:47:48;;;;;;;;;2.00;2.00;;;;;;;;5066884;28;45479;-67
2022/09/14 13:50:13;;;;;;;;;1.00;1.00;;;;;;;;5078948;28;45583;-66
2022/09/14 13:52:40;;;;;;;;;1.33;1.33;;;;;;;;5069223;28;45630;-67
2022/09/14 13:55:14;;;;;;;;;1.00;1.00;;;;;;;;5081460;28;45514;-67
2022/09/14 13:57:59;;;;;;;;;3.33;1.00;;;;;;;;5072364;28;48095;-68
2022/09/14 14:00:25;;;;;;;;;0.33;0.33;;;;;;;;5084252;28;45498;-68
2022/09/14 14:02:51;;;;;;;;;1.00;1.00;;;;;;;;5077413;28;45302;-68
2022/09/14 14:05:23;;;;;;;;;3.00;2.33;;;;;;;;5072842;28;45408;-68
2022/09/14 14:07:49;;;;;;;;;5.00;2.00;;;;;;;;5070658;28;45428;-68
2022/09/14 14:10:22;;;;;;;;;3.00;1.00;;;;;;;;5066691;28;45535;-68
2022/09/14 14:12:47;;;;;;;;;0.00;0.00;;;;;;;;5067600;28;45543;-68
2022/09/14 14:15:13;;;;;;;;;1.33;1.00;;;;;;;;5075251;28;45309;-67
2022/09/14 14:17:39;;;;;;;;;0.33;0.33;;;;;;;;5069258;28;45826;-68
2022/09/14 14:20:27;;;;;;;;;4.33;2.00;;;;;;;;5069909;28;45394;-68
2022/09/14 14:23:04;;;;;;;;;3.00;2.67;;;;;;;;5064941;28;45617;-67
2022/09/14 14:25:36;;;;;;;;;0.00;0.00;;;;;;;;5072926;28;45490;-68
2022/09/14 14:28:03;;;;;;;;;1.00;1.00;;;;;;;;5073987;28;45456;-68
2022/09/14 14:30:29;;;;;;;;;1.33;1.33;;;;;;;;5076918;28;45630;-67
2022/09/14 14:32:55;;;;;;;;;1.33;1.00;;;;;;;;5075171;28;45474;-68
2022/09/14 14:35:25;;;;;;;;;7.00;7.00;;;;;;;;5079739;28;45236;-68
2022/09/14 14:37:50;;;;;;;;;2.00;1.00;;;;;;;;5074363;28;45347;-67
2022/09/14 14:40:16;;;;;;;;;1.00;1.00;;;;;;;;5078240;28;45294;-68
2022/09/14 14:42:41;;;;;;;;;1.00;1.00;;;;;;;;5072527;28;45451;-66
2022/09/14 14:45:12;;;;;;;;;0.00;0.00;;;;;;;;5071514;28;45285;-68
2022/09/14 14:47:37;;;;;;;;;1.67;1.67;;;;;;;;5067601;28;45386;-66
2022/09/14 14:50:03;;;;;;;;;1.00;1.00;;;;;;;;5070549;28;45544;-68